Data for 01/31/2017

Time Sea-Level Adjusted Pressure Absolute Pressure Temperature Relative Humidity Dew Point   
(mb) (inHg) (mb) (inHg) (C) (F) (%) (C) (F)
00:05 1016 30 845 24.95 2.3 36.1 44 -8.8 16.2
00:10 1016 30 845 24.95 2.2 36 44 -8.9 16.1
00:15 1016 30 845 24.95 2.2 35.9 43 -9.2 15.5
00:20 1016 30 845 24.95 2.1 35.8 43 -9.2 15.4
00:25 1016 30 845 24.95 2 35.6 45 -8.7 16.3
00:30 1016 30 845 24.95 1.8 35.3 46 -8.7 16.3
00:35 1016 30 845 24.95 1.6 34.9 47 -8.4 16.8
00:40 1016 30 845 24.95 1.5 34.7 48 -8.3 17.1
00:45 1016 30 845 24.95 1.3 34.4 49 -8.3 17.1
00:50 1016 30 845 24.95 1.2 34.2 50 -8.2 17.2
00:55 1016 30 845 24.95 1.1 34 50 -8.3 17
01:00 1016 30 845 24.95 1.1 33.9 50 -8.1 17.4
01:05 1016 30 845 24.95 1 33.8 51 -8.1 17.4
01:10 1016 30 846 24.98 1 33.8 51 -8.1 17.4
01:15 1016 30 846 24.98 1 33.8 51 -8 17.6
01:20 1016 30 846 24.98 0.9 33.7 51 -8.1 17.5
01:25 1016 30 846 24.98 0.9 33.7 52 -7.8 18
01:30 1016 30 846 24.98 0.9 33.6 52 -7.8 17.9
01:35 1016 30 846 24.98 0.9 33.6 52 -8 17.7
01:40 1016 30 846 24.98 1 33.7 52 -7.8 17.9
01:45 1016 30 846 24.98 0.9 33.6 53 -7.6 18.3
01:50 1016 30 845 24.95 0.8 33.5 53 -7.7 18.2
01:55 1016 30 846 24.98 0.8 33.4 53 -7.8 17.9
02:00 1016 30 845 24.95 0.7 33.3 54 -7.6 18.3
02:05 1016 30 845 24.95 0.7 33.2 55 -7.4 18.7
02:10 1016 30 845 24.95 0.6 33.1 55 -7.3 18.8
02:15 1016 30 845 24.95 0.6 33 56 -7.1 19.2
02:20 1016 30 845 24.95 0.7 33.2 57 -6.9 19.6
02:25 1016 30 845 24.95 0.7 33.3 58 -6.7 19.9
02:30 1016 30 845 24.95 0.8 33.4 58 -6.6 20.1
02:35 1016 30 845 24.95 0.8 33.5 57 -6.9 19.7
02:40 1016 30 845 24.95 0.9 33.6 57 -6.7 20
02:45 1016 30 845 24.95 0.8 33.5 57 -6.7 19.9
02:50 1016 30 845 24.95 0.6 33.1 59 -6.5 20.3
02:55 1016 30 845 24.95 0.6 33 60 -6.4 20.5
03:00 1016 30 845 24.95 0.5 32.9 61 -6.1 21
03:05 1016 30 845 24.95 0.4 32.7 63 -5.9 21.3
03:10 1016 30 845 24.95 0.4 32.7 64 -5.6 22
03:15 1016 30 845 24.95 0.6 33.1 66 -5 23.1
03:20 1016 30 845 24.95 0.8 33.4 67 -4.7 23.5
03:25 1016 30 845 24.95 0.8 33.4 70 -4.1 24.7
03:30 1016 30 845 24.95 0.7 33.2 73 -3.6 25.5
03:35 1016 30 845 24.95 0.6 33.1 74 -3.4 25.9
03:40 1016 30 845 24.95 0.6 33.1 76 -3.2 26.3
03:45 1016 30 845 24.95 0.7 33.2 76 -3.1 26.4
03:50 1016 30 845 24.95 0.7 33.3 76 -3 26.6
03:55 1016 30 845 24.95 0.8 33.4 76 -3 26.5
04:00 1016 30 845 24.95 0.8 33.4 74 -3.3 26.1
04:05 1015 29.97 845 24.95 0.6 33.1 74 -3.5 25.6
04:10 1015 29.97 845 24.95 0.4 32.8 73 -3.8 25.1
04:15 1015 29.97 844 24.92 0.4 32.6 75 -3.5 25.7
04:20 1015 29.97 844 24.92 0 32.1 77 -3.6 25.6
04:25 1015 29.97 844 24.92 0 32.1 77 -3.5 25.7
04:30 1015 29.97 844 24.92 -0 31.9 78 -3.4 25.8
04:35 1015 29.97 844 24.92 -0 31.9 78 -3.4 25.9
04:40 1015 29.97 844 24.92 -0 32 78 -3.4 25.8
04:45 1015 29.97 844 24.92 0.2 32.3 76 -3.6 25.6
04:50 1015 29.97 844 24.92 0.2 32.4 76 -3.5 25.7
04:55 1015 29.97 844 24.92 0.3 32.5 76 -3.4 25.9
05:00 1015 29.97 844 24.92 0.3 32.5 77 -3.3 26.1
05:05 1015 29.97 844 24.92 0.3 32.5 77 -3.2 26.2
05:10 1015 29.97 844 24.92 0.2 32.4 78 -3.1 26.4
05:15 1015 29.97 844 24.92 0.2 32.3 79 -3 26.6
05:20 1015 29.97 844 24.92 0 32 80 -3 26.7
05:25 1015 29.97 844 24.92 -0.1 31.8 82 -2.9 26.9
05:30 1015 29.97 844 24.92 -0.3 31.5 84 -2.7 27.2
05:35 1015 29.97 844 24.92 -0.4 31.4 84 -2.7 27.2
05:40 1015 29.97 844 24.92 -0.4 31.3 85 -2.6 27.4
05:45 1015 29.97 844 24.92 -0.4 31.3 86 -2.5 27.5
05:50 1015 29.97 844 24.92 -0.5 31.2 87 -2.4 27.7
05:55 1015 29.97 844 24.92 -0.5 31.1 87 -2.3 27.8
06:00 1015 29.97 844 24.92 -0.5 31.1 88 -2.3 27.8
06:05 1015 29.97 844 24.92 -0.6 31 88 -2.3 27.8
06:10 1015 29.97 844 24.92 -0.6 30.9 88 -2.3 27.9
06:15 1015 29.97 844 24.92 -0.6 30.9 89 -2.3 27.9
06:20 1015 29.97 844 24.92 -0.7 30.8 89 -2.3 27.9
06:25 1014 29.94 844 24.92 -0.7 30.8 89 -2.2 28
06:30 1014 29.94 844 24.92 -0.7 30.7 89 -2.2 28
06:35 1014 29.94 844 24.92 -0.7 30.7 90 -2.2 28
06:40 1014 29.94 844 24.92 -0.7 30.7 90 -2.2 28.1
06:45 1014 29.94 844 24.92 -0.8 30.6 90 -2.2 28.1
06:50 1014 29.94 843 24.89 -0.8 30.6 91 -2.1 28.2
06:55 1014 29.94 843 24.89 -0.8 30.7 91 -2.1 28.3
07:00 1014 29.94 843 24.89 -0.8 30.5 91 -2.1 28.2
07:05 1014 29.94 843 24.89 -0.8 30.6 91 -2.1 28.2
07:10 1014 29.94 843 24.89 -0.8 30.6 91 -2.1 28.3
07:15 1014 29.94 843 24.89 -0.8 30.5 91 -2.1 28.2
07:20 1014 29.94 843 24.89 -0.9 30.5 91 -2.1 28.2
07:25 1014 29.94 843 24.89 -0.9 30.4 91 -2.1 28.2
07:30 1014 29.94 843 24.89 -0.9 30.3 91 -2.1 28.1
07:35 1014 29.94 843 24.89 -1 30.3 92 -2.1 28.1
07:40 1014 29.94 843 24.89 -0.9 30.4 92 -2 28.3
07:45 1014 29.94 843 24.89 -0.9 30.4 92 -2.1 28.3
07:50 1014 29.94 843 24.89 -0.9 30.4 92 -2.1 28.3
07:55 1014 29.94 843 24.89 -0.9 30.4 92 -2.1 28.3
08:00 1014 29.94 843 24.89 -0.9 30.5 92 -2 28.3
08:05 1014 29.94 843 24.89 -0.8 30.5 92 -2 28.3
08:10 1014 29.94 843 24.89 -0.9 30.4 92 -2.1 28.3
08:15 1014 29.94 843 24.89 -0.9 30.4 92 -2.1 28.3
08:20 1014 29.94 843 24.89 -0.9 30.4 92 -2.1 28.2
08:25 1014 29.94 843 24.89 -0.9 30.4 92 -2.1 28.3
08:30 1014 29.94 843 24.89 -0.9 30.4 92 -2.1 28.2
08:35 1014 29.94 843 24.89 -0.9 30.3 92 -2.1 28.2
08:40 1014 29.94 843 24.89 -0.9 30.3 92 -2.1 28.2
08:45 1014 29.94 843 24.89 -1 30.3 92 -2.1 28.2
08:50 1014 29.94 843 24.89 -1 30.2 92 -2.1 28.2
08:55 1014 29.94 843 24.89 -1 30.2 92 -2.1 28.2
09:00 1014 29.94 843 24.89 -1 30.1 92 -2.2 28.1
09:05 1014 29.94 843 24.89 -1.1 30 92 -2.2 28
09:10 1014 29.94 843 24.89 -1.2 29.9 92 -2.3 27.8
09:15 1014 29.94 843 24.89 -1.2 29.9 92 -2.3 27.8
09:20 1014 29.94 843 24.89 -1.3 29.7 92 -2.4 27.6
09:25 1014 29.94 843 24.89 -1.3 29.7 92 -2.5 27.6
09:30 1014 29.94 843 24.89 -1.3 29.7 92 -2.5 27.6
09:35 1014 29.94 843 24.89 -1.3 29.7 92 -2.5 27.5
09:40 1014 29.94 843 24.89 -2.3 27.9 87 -4.1 24.5
09:45 1014 29.94 843 24.89 -4 24.8 90 -5.5 22.2
09:50 1014 29.94 844 24.92 -4.6 23.8 90 -6 21.3
09:55 1014 29.94 844 24.92 -5 23 90 -6.4 20.5
10:00 1015 29.97 844 24.92 -5.5 22.1 88 -7.1 19.2
10:05 1015 29.97 844 24.92 -5.9 21.5 88 -7.6 18.4
10:10 1015 29.97 844 24.92 -6.1 21.1 85 -8.2 17.3
10:15 1015 29.97 844 24.92 -6.3 20.7 85 -8.4 16.9
10:20 1015 29.97 844 24.92 -6.5 20.4 86 -8.4 16.8
10:25 1015 29.97 844 24.92 -6.5 20.2 86 -8.6 16.6
10:30 1015 29.97 844 24.92 -6.7 20 85 -8.7 16.3
10:35 1015 29.97 844 24.92 -6.9 19.6 86 -8.8 16.1
10:40 1015 29.97 844 24.92 -7.1 19.3 87 -8.9 15.9
10:45 1015 29.97 844 24.92 -7.3 19 87 -9.1 15.7
10:50 1015 29.97 844 24.92 -7.4 18.7 87 -9.3 15.3
10:55 1015 29.97 844 24.92 -7.5 18.5 87 -9.3 15.3
11:00 1015 29.97 844 24.92 -7.5 18.4 88 -9.2 15.4
11:05 1015 29.97 844 24.92 -7.6 18.4 87 -9.3 15.2
11:10 1015 29.97 844 24.92 -7.6 18.3 88 -9.3 15.2
11:15 1015 29.97 844 24.92 -7.7 18.2 87 -9.4 15.1
11:20 1015 29.97 844 24.92 -7.8 18 88 -9.4 15
11:25 1015 29.97 844 24.92 -7.8 17.9 88 -9.5 14.9
11:30 1015 29.97 844 24.92 -7.9 17.9 87 -9.7 14.5
11:35 1015 29.97 844 24.92 -7.9 17.8 86 -9.8 14.4
11:40 1015 29.97 844 24.92 -7.9 17.8 85 -10 14.1
11:45 1015 29.97 844 24.92 -7.9 17.7 84 -10.1 13.7
11:50 1015 29.97 844 24.92 -8 17.6 84 -10.2 13.6
11:55 1015 29.97 845 24.95 -8 17.5 84 -10.3 13.5
12:00 1015 29.97 845 24.95 -8.1 17.5 84 -10.4 13.3
12:05 1015 29.97 845 24.95 -8.1 17.5 83 -10.5 13.2
12:10 1015 29.97 845 24.95 -8.1 17.4 84 -10.4 13.4
12:15 1016 30 845 24.95 -8.2 17.3 83 -10.5 13.1
12:20 1016 30 845 24.95 -8.2 17.3 85 -10.3 13.4
12:25 1016 30 845 24.95 -8.2 17.2 85 -10.3 13.4
12:30 1016 30 845 24.95 -8.3 17.1 85 -10.4 13.3
12:35 1016 30 845 24.95 -8.3 17.1 85 -10.3 13.4
12:40 1016 30 845 24.95 -8.3 17.1 84 -10.6 13
12:45 1016 30 845 24.95 -8.3 17.1 85 -10.4 13.2
12:50 1016 30 845 24.95 -8.3 17 84 -10.6 12.9
12:55 1015 29.97 845 24.95 -8.4 16.9 84 -10.6 12.9
13:00 1015 29.97 845 24.95 -8.4 16.9 84 -10.6 13
13:05 1016 30 845 24.95 -8.3 17 85 -10.4 13.2
13:10 1015 29.97 845 24.95 -8.3 17 83 -10.6 12.8
13:15 1015 29.97 845 24.95 -8.3 17.1 84 -10.6 13
13:20 1015 29.97 845 24.95 -8.3 17.1 82 -10.9 12.5
13:25 1015 29.97 845 24.95 -8.2 17.2 82 -10.9 12.4
13:30 1015 29.97 845 24.95 -8.2 17.3 80 -11 12.2
13:35 1015 29.97 845 24.95 -8.1 17.4 80 -11 12.2
13:40 1015 29.97 844 24.92 -8.2 17.3 80 -11.1 12
13:45 1015 29.97 844 24.92 -8.1 17.3 79 -11.1 12
13:50 1015 29.97 845 24.95 -8.1 17.4 80 -11 12.2
13:55 1015 29.97 845 24.95 -8.1 17.4 77 -11.5 11.3
14:00 1015 29.97 845 24.95 -8.1 17.3 76 -11.7 10.9
14:05 1015 29.97 845 24.95 -8.2 17.3 76 -11.7 10.9
14:10 1015 29.97 845 24.95 -8.2 17.3 76 -11.7 10.9
14:15 1015 29.97 845 24.95 -8.2 17.3 75 -11.9 10.5
14:20 1016 30 845 24.95 -8.2 17.2 76 -11.7 11
14:25 1016 30 845 24.95 -8.3 17.1 79 -11.3 11.7
14:30 1016 30 845 24.95 -8.3 17.1 79 -11.3 11.7
14:35 1016 30 845 24.95 -8.3 17.2 78 -11.4 11.4
14:40 1016 30 845 24.95 -8.3 17.1 78 -11.4 11.4
14:45 1015 29.97 845 24.95 -8.3 17 79 -11.3 11.6
14:50 1015 29.97 844 24.92 -8.5 16.8 79 -11.4 11.5
14:55 1015 29.97 845 24.95 -8.4 16.8 78 -11.7 11
15:00 1015 29.97 845 24.95 -8.4 17 79 -11.3 11.6
15:05 1015 29.97 844 24.92 -8.4 17 78 -11.6 11.1
15:10 1015 29.97 845 24.95 -8.4 16.9 78 -11.6 11.1
15:15 1015 29.97 845 24.95 -8.3 17 76 -11.8 10.8
15:20 1015 29.97 845 24.95 -8.4 17 76 -11.8 10.8
15:25 1015 29.97 845 24.95 -8.4 16.9 75 -12 10.3
15:30 1016 30 845 24.95 -8.5 16.7 76 -12 10.4
15:35 1016 30 845 24.95 -8.5 16.6 76 -12 10.4
15:40 1016 30 845 24.95 -8.6 16.6 79 -11.7 11
15:45 1016 30 845 24.95 -8.6 16.5 80 -11.5 11.3
15:50 1016 30 845 24.95 -8.6 16.6 79 -11.6 11.2
15:55 1016 30 845 24.95 -8.7 16.4 80 -11.5 11.2
16:00 1016 30 845 24.95 -8.7 16.4 80 -11.5 11.3
16:05 1016 30 845 24.95 -8.7 16.3 80 -11.5 11.2
16:10 1016 30 845 24.95 -8.7 16.3 81 -11.5 11.3
16:15 1016 30 845 24.95 -8.8 16.2 81 -11.4 11.5
16:20 1016 30 845 24.95 -8.8 16.1 81 -11.5 11.2
16:25 1016 30 845 24.95 -8.9 16 80 -11.7 10.9
16:30 1016 30 846 24.98 -8.9 15.9 81 -11.6 11.2
16:35 1016 30 846 24.98 -9 15.8 82 -11.6 11.2
16:40 1016 30 846 24.98 -9.1 15.6 82 -11.6 11.1
16:45 1017 30.03 846 24.98 -9.1 15.6 82 -11.6 11.1
16:50 1017 30.03 846 24.98 -9.2 15.5 81 -11.8 10.7
16:55 1017 30.03 846 24.98 -9.2 15.4 81 -11.9 10.6
17:00 1017 30.03 846 24.98 -9.2 15.4 82 -11.7 10.9
17:05 1017 30.03 846 24.98 -9.3 15.3 81 -11.9 10.6
17:10 1017 30.03 846 24.98 -9.3 15.3 80 -12 10.3
17:15 1017 30.03 846 24.98 -9.3 15.3 81 -12 10.4
17:20 1017 30.03 846 24.98 -9.3 15.3 81 -12 10.3
17:25 1017 30.03 846 24.98 -9.3 15.3 80 -12.2 10.1
17:30 1017 30.03 846 24.98 -9.4 15.1 79 -12.3 9.8
17:35 1017 30.03 846 24.98 -9.4 15 79 -12.4 9.7
17:40 1017 30.03 846 24.98 -9.4 15 79 -12.5 9.5
17:45 1017 30.03 846 24.98 -9.5 14.9 80 -12.4 9.8
17:50 1017 30.03 846 24.98 -9.5 14.9 78 -12.7 9.1
17:55 1017 30.03 846 24.98 -9.5 15 78 -12.6 9.3
18:00 1017 30.03 846 24.98 -9.5 14.9 79 -12.5 9.6
18:05 1017 30.03 846 24.98 -9.6 14.8 78 -12.7 9.2
18:10 1017 30.03 847 25.01 -9.6 14.7 79 -12.7 9.2
18:15 1017 30.03 847 25.01 -9.7 14.6 80 -12.4 9.6
18:20 1018 30.06 847 25.01 -9.7 14.5 81 -12.3 9.8
18:25 1018 30.06 847 25.01 -9.8 14.4 82 -12.3 9.9
18:30 1018 30.06 847 25.01 -9.9 14.3 83 -12.2 10
18:35 1018 30.06 847 25.01 -9.9 14.2 83 -12.2 10.1
18:40 1018 30.06 847 25.01 -9.9 14.2 82 -12.4 9.7
18:45 1018 30.06 847 25.01 -9.9 14.2 82 -12.4 9.7
18:50 1018 30.06 847 25.01 -9.9 14.3 81 -12.6 9.4
18:55 1018 30.06 847 25.01 -9.8 14.3 79 -12.8 9
19:00 1018 30.06 847 25.01 -9.8 14.4 79 -12.8 8.9
19:05 1018 30.06 847 25.01 -9.8 14.4 78 -12.8 8.9
19:10 1018 30.06 847 25.01 -9.8 14.5 77 -13 8.6
19:15 1018 30.06 847 25.01 -9.8 14.5 79 -12.8 9
19:20 1018 30.06 847 25.01 -9.8 14.4 80 -12.7 9.2
19:25 1018 30.06 847 25.01 -9.8 14.3 81 -12.6 9.4
19:30 1018 30.06 847 25.01 -9.9 14.3 81 -12.6 9.4
19:35 1018 30.06 847 25.01 -9.9 14.3 81 -12.5 9.4
19:40 1018 30.06 847 25.01 -9.9 14.2 81 -12.6 9.3
19:45 1018 30.06 847 25.01 -9.8 14.3 79 -12.8 8.9
19:50 1018 30.06 847 25.01 -9.8 14.4 80 -12.6 9.2
19:55 1018 30.06 847 25.01 -9.8 14.4 80 -12.6 9.3
20:00 1018 30.06 847 25.01 -9.8 14.4 80 -12.7 9.2
20:05 1018 30.06 847 25.01 -9.8 14.3 80 -12.7 9.2
20:10 1018 30.06 847 25.01 -9.8 14.3 79 -12.8 8.9
20:15 1018 30.06 847 25.01 -9.8 14.3 79 -12.9 8.8
20:20 1018 30.06 847 25.01 -9.9 14.3 79 -12.9 8.8
20:25 1018 30.06 847 25.01 -9.8 14.3 77 -13.1 8.3
20:30 1018 30.06 848 25.04 -9.8 14.3 78 -13 8.5
20:35 1018 30.06 848 25.04 -9.9 14.3 78 -13 8.6
20:40 1018 30.06 847 25.01 -9.9 14.1 78 -13.1 8.4
20:45 1018 30.06 847 25.01 -9.9 14.1 77 -13.2 8.3
20:50 1018 30.06 848 25.04 -9.9 14.1 77 -13.3 8.1
20:55 1018 30.06 847 25.01 -10 14.1 77 -13.3 8
21:00 1018 30.06 847 25.01 -10 14 76 -13.4 7.8
21:05 1018 30.06 847 25.01 -10 13.9 75 -13.7 7.4
21:10 1018 30.06 847 25.01 -10.1 13.9 75 -13.6 7.5
21:15 1018 30.06 847 25.01 -10.1 13.8 75 -13.7 7.3
21:20 1018 30.06 847 25.01 -10.1 13.8 75 -13.7 7.3
21:25 1018 30.06 847 25.01 -10.1 13.7 75 -13.8 7.2
21:30 1018 30.06 847 25.01 -10.2 13.7 74 -13.9 7
21:35 1018 30.06 847 25.01 -10.2 13.6 76 -13.6 7.4
21:40 1018 30.06 847 25.01 -10.2 13.6 76 -13.6 7.5
21:45 1018 30.06 848 25.04 -10.3 13.5 75 -13.8 7.1
21:50 1018 30.06 848 25.04 -10.3 13.5 75 -13.9 7
21:55 1018 30.06 847 25.01 -10.3 13.5 75 -14 6.8
22:00 1018 30.06 847 25.01 -10.3 13.5 74 -14 6.8
22:05 1018 30.06 847 25.01 -10.3 13.4 75 -14 6.8
22:10 1018 30.06 847 25.01 -10.4 13.4 75 -14 6.9
22:15 1018 30.06 847 25.01 -10.4 13.3 76 -13.9 6.9
22:20 1018 30.06 847 25.01 -10.5 13.2 76 -13.9 7
22:25 1018 30.06 847 25.01 -10.5 13.2 76 -14 6.9
22:30 1018 30.06 848 25.04 -10.5 13.1 76 -14 6.8
22:35 1019 30.09 848 25.04 -10.5 13.1 76 -14 6.8
22:40 1019 30.09 848 25.04 -10.5 13.2 75 -14 6.7
22:45 1019 30.09 848 25.04 -10.5 13.2 76 -14 6.8
22:50 1019 30.09 848 25.04 -10.5 13.1 76 -14 6.8
22:55 1019 30.09 848 25.04 -10.5 13 76 -14 6.8
23:00 1019 30.09 848 25.04 -10.5 13.1 76 -13.9 7
23:05 1019 30.09 848 25.04 -10.6 13 76 -14 6.8
23:10 1019 30.09 848 25.04 -10.6 13 77 -13.9 7.1
23:15 1019 30.09 848 25.04 -10.6 12.9 78 -13.7 7.3
23:20 1019 30.09 848 25.04 -10.7 12.8 78 -13.8 7.2
23:25 1019 30.09 848 25.04 -10.7 12.8 77 -13.9 6.9
23:30 1019 30.09 849 25.07 -10.7 12.8 77 -14 6.8
23:35 1020 30.12 849 25.07 -10.6 12.9 77 -13.9 7
23:40 1019 30.09 849 25.07 -10.7 12.8 77 -13.9 6.9
23:45 1019 30.09 849 25.07 -10.6 12.9 78 -13.8 7.1
23:50 1020 30.12 849 25.07 -10.7 12.8 78 -13.8 7.2
23:55 1019 30.09 849 25.07 -10.7 12.7 80 -13.5 7.6
24:00 1019 30.09 849 25.07 -10.8 12.5 82 -13.4 7.9